Time;durP1;ratioP1;P1;durP2;ratioP2;P2;SDS_P1;SDS_P2;PMS_P1;PMS_P2;Temp;Humidity;BMP_temperature;BMP_pressure;BME280_temperature;BME280_humidity;BME280_pressure;Samples;Min_cycle;Max_cycle;Signal;HPM_P1;HPM_P2
2022/03/22 00:02:01;;;;;;;30.37;22.60;;;;;7.20;102467.00;;;;10485941;28;20243;-78
2022/03/22 00:07:03;;;;;;;32.13;22.60;;;;;7.10;102475.00;;;;10498208;28;20196;-78
2022/03/22 00:12:05;;;;;;;36.10;23.70;;;;;6.90;102469.00;;;;10521510;28;20621;-78
2022/03/22 00:17:07;;;;;;;31.73;22.60;;;;;6.90;102467.00;;;;10488501;28;20197;-78
2022/03/22 00:22:29;;;;;;;39.77;24.93;;;;;6.70;102478.00;;;;10491451;28;20538;-78
2022/03/22 00:27:51;;;;;;;57.10;32.93;;;;;6.70;102476.00;;;;10488412;28;20224;-78
2022/03/22 00:32:55;;;;;;;44.20;29.30;;;;;6.60;102485.00;;;;10463805;28;20237;-78
2022/03/22 00:37:58;;;;;;;32.60;23.43;;;;;6.40;102473.00;;;;10452830;28;20217;-78
2022/03/22 00:43:01;;;;;;;34.37;22.37;;;;;6.30;102486.00;;;;10488049;28;20189;-78
2022/03/22 00:48:06;;;;;;;38.77;25.77;;;;;6.20;102488.00;;;;10487987;28;20201;-78
2022/03/22 00:53:08;;;;;;;33.07;22.50;;;;;6.20;102486.00;;;;10487725;28;20212;-78
2022/03/22 00:58:11;;;;;;;36.17;24.63;;;;;6.10;102482.00;;;;10487308;28;20197;-78
2022/03/22 01:03:13;;;;;;;32.50;24.23;;;;;6.00;102486.00;;;;10488005;28;20189;-78
2022/03/22 01:08:15;;;;;;;34.97;23.70;;;;;6.00;102482.00;;;;10487384;28;20220;-78
2022/03/22 01:13:17;;;;;;;34.60;24.07;;;;;6.10;102478.00;;;;10470972;28;20201;-78
2022/03/22 01:18:19;;;;;;;37.73;24.47;;;;;6.00;102488.00;;;;10510262;28;20193;-78
2022/03/22 01:23:21;;;;;;;39.93;25.47;;;;;6.00;102487.00;;;;10511567;28;20673;-78
2022/03/22 01:28:23;;;;;;;37.63;24.07;;;;;5.90;102487.00;;;;10498080;28;20205;-78
2022/03/22 01:33:26;;;;;;;34.47;24.23;;;;;5.80;102477.00;;;;10470111;28;20671;-78
2022/03/22 01:38:28;;;;;;;33.13;24.53;;;;;5.80;102477.00;;;;10493939;28;20224;-78
2022/03/22 01:43:30;;;;;;;36.47;23.73;;;;;5.80;102471.00;;;;10510554;28;20211;-78
2022/03/22 01:48:32;;;;;;;34.53;22.63;;;;;5.70;102486.00;;;;10494219;28;20311;-78
2022/03/22 01:53:35;;;;;;;32.70;20.53;;;;;5.70;102481.00;;;;10510363;28;20262;-78
2022/03/22 01:58:37;;;;;;;38.93;23.53;;;;;5.80;102480.00;;;;10494299;28;20236;-79
2022/03/22 02:09:06;;;;;;;29.20;21.20;;;;;5.70;102473.00;;;;10529724;28;20193;-79
2022/03/22 02:14:09;;;;;;;28.97;20.07;;;;;5.60;102465.00;;;;10496364;28;20200;-78
2022/03/22 02:19:14;;;;;;;27.47;19.13;;;;;5.50;102479.00;;;;10492309;28;20193;-79
2022/03/22 02:24:16;;;;;;;29.30;19.67;;;;;5.50;102461.00;;;;10509667;28;20250;-78
2022/03/22 02:29:19;;;;;;;25.50;17.93;;;;;5.40;102469.00;;;;10525069;28;20178;-78
2022/03/22 02:34:21;;;;;;;28.20;19.40;;;;;5.40;102469.00;;;;10498582;28;20285;-78
2022/03/22 02:39:24;;;;;;;25.57;18.83;;;;;5.30;102471.00;;;;10508097;28;20225;-78
2022/03/22 02:44:27;;;;;;;29.83;19.53;;;;;5.30;102467.00;;;;10491628;28;20189;-78
2022/03/22 02:49:30;;;;;;;27.47;18.63;;;;;5.20;102461.00;;;;10491330;28;20278;-78
2022/03/22 02:54:32;;;;;;;30.77;19.70;;;;;5.10;102466.00;;;;10511546;28;20250;-78
2022/03/22 02:59:34;;;;;;;32.07;19.40;;;;;5.10;102467.00;;;;10473781;28;20197;-78
2022/03/22 03:04:36;;;;;;;29.37;18.90;;;;;5.00;102475.00;;;;10465818;28;20190;-78
2022/03/22 03:09:38;;;;;;;27.43;18.83;;;;;5.00;102463.00;;;;10465441;28;20209;-79
2022/03/22 03:14:40;;;;;;;27.10;19.17;;;;;4.90;102468.00;;;;10525295;28;20188;-78
2022/03/22 03:19:43;;;;;;;25.73;18.47;;;;;4.90;102483.00;;;;10532337;28;20203;-78
2022/03/22 03:24:45;;;;;;;30.97;19.53;;;;;4.80;102485.00;;;;10495266;28;20196;-78
2022/03/22 03:29:46;;;;;;;29.70;20.43;;;;;4.80;102482.00;;;;10506667;28;20235;-78
2022/03/22 03:34:48;;;;;;;30.20;20.53;;;;;4.80;102479.00;;;;10485814;28;20195;-78
2022/03/22 03:39:51;;;;;;;33.80;20.23;;;;;4.70;102481.00;;;;10522826;28;20205;-78
2022/03/22 03:50:14;;;;;;;30.57;20.70;;;;;4.70;102483.00;;;;10547969;28;20212;-78
2022/03/22 03:55:16;;;;;;;35.20;21.90;;;;;4.70;102490.00;;;;10547462;28;20184;-78
2022/03/22 04:00:19;;;;;;;30.90;20.40;;;;;4.60;102484.00;;;;10506048;28;20243;-78
2022/03/22 04:05:21;;;;;;;31.37;20.33;;;;;4.60;102490.00;;;;10505783;28;20241;-78
2022/03/22 04:10:23;;;;;;;32.17;21.13;;;;;4.50;102493.00;;;;10547136;28;20216;-78
2022/03/22 04:15:25;;;;;;;31.87;20.13;;;;;4.50;102497.00;;;;10527466;28;20185;-78
2022/03/22 04:20:27;;;;;;;29.87;20.50;;;;;4.40;102493.00;;;;10505285;28;20209;-78
2022/03/22 04:25:30;;;;;;;33.53;20.77;;;;;4.40;102489.00;;;;10504545;28;20207;-78
2022/03/22 04:35:52;;;;;;;34.00;21.50;;;;;4.50;102497.00;;;;10488525;28;20231;-78
2022/03/22 04:40:54;;;;;;;29.87;20.73;;;;;4.50;102492.00;;;;10504902;28;20593;-78
2022/03/22 04:45:56;;;;;;;28.20;20.17;;;;;4.40;102494.00;;;;10514416;28;20185;-78
2022/03/22 05:01:39;;;;;;;29.77;18.97;;;;;4.20;102487.00;;;;10554212;28;20237;-79
2022/03/22 05:06:41;;;;;;;28.30;18.90;;;;;4.20;102498.00;;;;10466934;28;20190;-79
2022/03/22 05:11:43;;;;;;;28.53;19.40;;;;;4.20;102494.00;;;;10478797;28;20806;-79
2022/03/22 05:16:45;;;;;;;31.37;19.57;;;;;4.10;102497.00;;;;10510801;28;20271;-79
2022/03/22 05:21:47;;;;;;;30.93;20.50;;;;;4.20;102507.00;;;;10508709;28;20264;-79
2022/03/22 05:26:50;;;;;;;33.10;21.33;;;;;4.30;102514.00;;;;10494109;28;20243;-79
2022/03/22 05:31:52;;;;;;;34.17;20.80;;;;;4.40;102511.00;;;;10489596;28;20209;-79
2022/03/22 05:36:54;;;;;;;31.57;20.37;;;;;4.40;102525.00;;;;10477090;28;20232;-79
2022/03/22 05:41:56;;;;;;;29.27;19.53;;;;;4.30;102522.00;;;;10522720;28;20193;-80
2022/03/22 05:46:58;;;;;;;25.57;17.80;;;;;4.30;102532.00;;;;10479182;28;20201;-80
2022/03/22 05:52:00;;;;;;;30.03;18.77;;;;;4.30;102524.00;;;;10478350;28;20709;-80
2022/03/22 05:57:02;;;;;;;26.13;18.60;;;;;4.30;102526.00;;;;10471562;28;20582;-79
2022/03/22 06:02:04;;;;;;;27.63;18.60;;;;;4.30;102514.00;;;;10510291;28;20235;-79
2022/03/22 06:07:07;;;;;;;30.30;18.77;;;;;4.40;102516.00;;;;10496213;28;20197;-79
2022/03/22 06:12:08;;;;;;;31.40;21.13;;;;;4.60;102528.00;;;;10507341;28;20205;-79
2022/03/22 06:17:10;;;;;;;35.20;20.77;;;;;4.90;102522.00;;;;10509286;28;20197;-80
2022/03/22 06:22:13;;;;;;;30.47;20.30;;;;;5.20;102524.00;;;;10503109;28;20219;-79
2022/03/22 06:27:17;;;;;;;31.07;20.13;;;;;5.40;102534.00;;;;10495121;28;20220;-79
2022/03/22 06:32:20;;;;;;;33.80;20.07;;;;;5.60;102537.00;;;;10490489;28;20242;-79
2022/03/22 06:37:22;;;;;;;28.10;19.07;;;;;5.90;102553.00;;;;10471616;28;20227;-79
2022/03/22 06:42:24;;;;;;;28.90;18.47;;;;;6.10;102560.00;;;;10513424;28;20660;-79
2022/03/22 06:47:26;;;;;;;25.13;17.33;;;;;6.40;102555.00;;;;10507628;28;20537;-79
2022/03/22 06:52:28;;;;;;;29.50;16.90;;;;;6.80;102560.00;;;;10465237;28;20271;-79
2022/03/22 06:57:31;;;;;;;32.33;17.87;;;;;7.20;102563.00;;;;10499767;28;20315;-79
2022/03/22 07:02:35;;;;;;;24.17;16.17;;;;;7.80;102574.00;;;;10529475;28;20655;-79
2022/03/22 07:07:38;;;;;;;22.33;14.97;;;;;8.30;102563.00;;;;10502644;28;20189;-79
2022/03/22 07:12:53;;;;;;;22.57;15.33;;;;;8.90;102571.00;;;;10467069;28;20202;-79
2022/03/22 07:17:58;;;;;;;26.60;15.83;;;;;9.40;102578.00;;;;10498519;28;20215;-79
2022/03/22 07:23:00;;;;;;;22.77;15.43;;;;;9.90;102589.00;;;;10488174;28;20224;-80
2022/03/22 07:28:02;;;;;;;26.13;15.23;;;;;10.40;102585.00;;;;10509768;28;20189;-79
2022/03/22 07:33:04;;;;;;;20.00;15.30;;;;;10.80;102582.00;;;;10487151;28;20209;-79
2022/03/22 07:38:06;;;;;;;23.17;15.73;;;;;11.10;102585.00;;;;10504938;28;20220;-79
2022/03/22 07:43:08;;;;;;;23.60;14.97;;;;;11.40;102589.00;;;;10489310;28;20643;-79
2022/03/22 07:48:10;;;;;;;19.47;16.13;;;;;11.90;102587.00;;;;10517301;28;20607;-79
2022/03/22 07:53:12;;;;;;;23.17;15.30;;;;;12.30;102593.00;;;;10465296;28;20201;-79
2022/03/22 07:58:15;;;;;;;19.40;15.77;;;;;12.70;102591.00;;;;10494437;28;20674;-79
2022/03/22 08:03:18;;;;;;;24.60;16.60;;;;;13.20;102585.00;;;;10477130;28;20574;-79
2022/03/22 08:08:21;;;;;;;22.73;15.57;;;;;13.60;102593.00;;;;10465949;28;20201;-79
2022/03/22 08:13:38;;;;;;;23.43;16.20;;;;;13.90;102591.00;;;;10498856;28;20204;-79
2022/03/22 08:18:40;;;;;;;18.87;15.47;;;;;14.20;102594.00;;;;10501140;28;20185;-80
2022/03/22 08:23:42;;;;;;;26.10;16.50;;;;;14.60;102588.00;;;;10451951;28;20189;-79
2022/03/22 08:28:44;;;;;;;20.60;16.57;;;;;15.00;102598.00;;;;10484690;28;20193;-79
2022/03/22 08:33:46;;;;;;;21.67;15.33;;;;;15.30;102592.00;;;;10504436;28;20208;-79
2022/03/22 08:38:49;;;;;;;21.40;14.43;;;;;15.70;102591.00;;;;10486431;28;20243;-79
2022/03/22 08:43:52;;;;;;;19.97;14.90;;;;;16.00;102598.00;;;;10501587;28;20206;-76
2022/03/22 08:48:55;;;;;;;22.87;14.37;;;;;16.50;102599.00;;;;10480985;28;20203;-76
2022/03/22 08:53:57;;;;;;;19.67;14.77;;;;;17.00;102604.00;;;;10478726;28;20214;-75
2022/03/22 08:59:00;;;;;;;19.05;14.80;;;;;17.40;102605.00;;;;10494625;28;20280;-75
2022/03/22 09:09:29;;;;;;;22.50;14.55;;;;;18.60;102606.00;;;;10502970;28;20563;-76
2022/03/22 09:14:31;;;;;;;21.35;14.23;;;;;18.90;102602.00;;;;10519285;28;20217;-77
2022/03/22 09:19:36;;;;;;;21.52;14.98;;;;;19.30;102592.00;;;;10517324;28;20217;-77
2022/03/22 09:24:58;;;;;;;23.60;14.60;;;;;19.70;102593.00;;;;10489304;28;20271;-77
2022/03/22 09:30:01;;;;;;;22.08;15.63;;;;;20.00;102590.00;;;;10503134;28;20204;-76
2022/03/22 09:35:06;;;;;;;18.70;15.32;;;;;20.30;102592.00;;;;10535244;28;20262;-77
2022/03/22 09:40:10;;;;;;;22.45;15.20;;;;;20.60;102584.00;;;;10522602;28;20193;-77
2022/03/22 09:45:18;;;;;;;21.92;14.73;;;;;20.80;102585.00;;;;10485868;28;20201;-77
2022/03/22 09:50:21;;;;;;;21.80;15.80;;;;;21.00;102578.00;;;;10492567;28;20205;-78
2022/03/22 09:55:24;;;;;;;21.80;14.95;;;;;21.50;102586.00;;;;10502561;28;20589;-78
2022/03/22 10:00:26;;;;;;;21.17;14.93;;;;;21.90;102578.00;;;;10532642;28;20248;-78
2022/03/22 10:05:29;;;;;;;19.85;15.23;;;;;22.20;102576.00;;;;10498487;28;20559;-78
2022/03/22 10:10:32;;;;;;;23.63;15.55;;;;;22.70;102576.00;;;;10520754;28;20275;-77
2022/03/22 10:15:36;;;;;;;19.05;14.45;;;;;22.60;102564.00;;;;10508556;28;20197;-78
2022/03/22 10:20:40;;;;;;;22.55;15.65;;;;;22.50;102565.00;;;;10512904;28;20193;-77
2022/03/22 10:25:42;;;;;;;21.77;16.30;;;;;22.60;102561.00;;;;10487873;28;20331;-78
2022/03/22 10:30:55;;;;;;;23.15;16.80;;;;;22.70;102564.00;;;;10477448;28;20193;-78
2022/03/22 10:36:00;;;;;;;22.20;16.17;;;;;22.80;102567.00;;;;10508176;28;20220;-77
2022/03/22 10:41:07;;;;;;;27.50;16.17;;;;;22.90;102560.00;;;;10510453;28;20189;-78
2022/03/22 10:46:11;;;;;;;22.45;16.80;;;;;23.10;102561.00;;;;10483987;28;20548;-78
2022/03/22 10:51:15;;;;;;;22.20;16.27;;;;;23.40;102558.00;;;;10496264;28;20205;-78
2022/03/22 10:56:17;;;;;;;21.10;16.00;;;;;23.70;102545.00;;;;10444192;28;20196;-78
2022/03/22 11:01:20;;;;;;;25.10;15.32;;;;;23.90;102549.00;;;;10523152;28;20185;-78
2022/03/22 11:06:28;;;;;;;21.17;16.52;;;;;24.40;102544.00;;;;10491326;28;20592;-78
2022/03/22 11:11:32;;;;;;;27.92;16.15;;;;;24.40;102537.00;;;;10537592;28;20640;-78
2022/03/22 11:16:35;;;;;;;21.13;15.73;;;;;24.30;102538.00;;;;10489745;28;20209;-78
2022/03/22 11:21:38;;;;;;;20.42;14.82;;;;;24.50;102540.00;;;;10523121;28;20223;-78
2022/03/22 11:26:46;;;;;;;25.20;13.77;;;;;24.60;102521.00;;;;10479519;28;20186;-78
2022/03/22 11:34:09;;;;;;;23.67;15.60;;;;;24.70;102524.00;;;;10522523;28;20295;-78
2022/03/22 11:37:10;;;;;;;25.70;15.45;;;;;24.70;102514.00;;;;10504551;28;20223;-78
2022/03/22 11:42:17;;;;;;;18.25;14.25;;;;;24.60;102520.00;;;;10513744;28;20192;-78
2022/03/22 11:47:19;;;;;;;18.10;13.90;;;;;24.80;102516.00;;;;10526870;28;20242;-78
2022/03/22 11:52:35;;;;;;;19.95;14.02;;;;;24.90;102510.00;;;;10502587;28;20408;-78
2022/03/22 11:57:48;;;;;;;23.30;15.13;;;;;25.40;102499.00;;;;10500274;28;20193;-78
2022/03/22 12:02:54;;;;;;;25.15;16.08;;;;;25.60;102503.00;;;;10449076;28;20186;-78
2022/03/22 12:08:05;;;;;;;23.50;15.07;;;;;25.50;102499.00;;;;10530890;28;20228;-79
2022/03/22 12:13:07;;;;;;;21.00;15.52;;;;;25.70;102494.00;;;;10475448;28;20197;-79
2022/03/22 12:18:15;;;;;;;32.30;17.05;;;;;25.80;102495.00;;;;10489379;28;20699;-78
2022/03/22 12:23:18;;;;;;;24.55;16.02;;;;;25.50;102489.00;;;;10539907;28;20189;-78
2022/03/22 12:28:20;;;;;;;23.58;15.23;;;;;25.30;102486.00;;;;10504587;28;20192;-78
2022/03/22 12:33:22;;;;;;;24.60;15.20;;;;;25.50;102482.00;;;;10462997;28;20245;-79
2022/03/22 12:38:24;;;;;;;21.23;15.25;;;;;25.70;102475.00;;;;10493884;28;20229;-78
2022/03/22 12:43:27;;;;;;;19.52;15.13;;;;;25.70;102463.00;;;;10521097;28;20246;-78
2022/03/22 12:48:30;;;;;;;16.67;11.88;;;;;25.60;102459.00;;;;10487099;28;20181;-78
2022/03/22 12:53:37;;;;;;;22.25;13.52;;;;;25.70;102454.00;;;;10487402;28;20571;-79
2022/03/22 12:58:39;;;;;;;18.40;13.40;;;;;26.10;102451.00;;;;10503611;28;20719;-79
2022/03/22 13:03:46;;;;;;;19.25;14.50;;;;;26.10;102445.00;;;;10478574;28;20193;-79
2022/03/22 13:19:32;;;;;;;19.42;14.52;;;;;25.20;102438.00;;;;10539600;28;20195;-79
2022/03/22 13:24:36;;;;;;;18.98;13.50;;;;;25.20;102421.00;;;;10501437;28;20201;-79
2022/03/22 13:29:39;;;;;;;15.02;12.07;;;;;26.40;102422.00;;;;10512258;28;20798;-78
2022/03/22 13:34:44;;;;;;;13.63;10.82;;;;;26.20;102422.00;;;;10499714;28;20208;-79
2022/03/22 13:39:49;;;;;;;19.58;12.60;;;;;27.90;102410.00;;;;10453908;28;20312;-78
2022/03/22 13:44:54;;;;;;;16.90;11.80;;;;;28.50;102401.00;;;;10465905;28;20220;-79
2022/03/22 13:50:01;;;;;;;19.30;12.65;;;;;29.00;102387.00;;;;10509638;28;20228;-79
2022/03/22 13:55:13;;;;;;;18.10;12.10;;;;;29.70;102378.00;;;;10502673;28;20300;-79
2022/03/22 14:00:16;;;;;;;15.43;11.18;;;;;30.20;102369.00;;;;10526052;28;20197;-80
2022/03/22 14:05:18;;;;;;;15.75;11.23;;;;;30.50;102367.00;;;;10492543;28;20204;-78
2022/03/22 14:10:20;;;;;;;16.45;10.88;;;;;30.40;102348.00;;;;10503447;28;20213;-79
2022/03/22 14:15:23;;;;;;;18.15;11.35;;;;;30.70;102346.00;;;;10503764;28;20698;-79
2022/03/22 14:20:27;;;;;;;16.20;11.35;;;;;30.40;102348.00;;;;10488570;28;20259;-79
2022/03/22 14:25:34;;;;;;;20.75;12.88;;;;;29.10;102371.00;;;;10505708;28;20721;-78
2022/03/22 14:30:39;;;;;;;19.92;14.20;;;;;28.00;102332.00;;;;10484714;28;20207;-78
2022/03/22 14:35:47;;;;;;;20.70;13.85;;;;;28.00;102338.00;;;;10520614;28;20250;-78
2022/03/22 14:40:51;;;;;;;13.73;10.80;;;;;28.70;102340.00;;;;10459854;28;20193;-78
2022/03/22 14:45:56;;;;;;;23.17;13.23;;;;;27.20;102374.00;;;;10511287;28;20210;-78
2022/03/22 14:51:00;;;;;;;15.85;12.95;;;;;26.00;102347.00;;;;10530642;28;20197;-78
2022/03/22 15:01:31;;;;;;;17.02;13.20;;;;;27.40;102331.00;;;;10503365;28;20189;-78
2022/03/22 15:06:35;;;;;;;24.58;13.57;;;;;27.30;102332.00;;;;10524818;28;20189;-78
2022/03/22 15:11:37;;;;;;;22.08;13.05;;;;;28.10;102338.00;;;;10480767;28;20220;-78
2022/03/22 15:16:39;;;;;;;21.88;11.20;;;;;25.50;102355.00;;;;10521995;28;20248;-78
2022/03/22 15:21:41;;;;;;;18.65;12.00;;;;;23.70;102333.00;;;;10506826;28;20208;-78
2022/03/22 15:26:43;;;;;;;20.00;12.15;;;;;25.30;102308.00;;;;10480487;28;20917;-78
2022/03/22 15:31:45;;;;;;;16.83;10.70;;;;;25.20;102313.00;;;;10470990;28;20274;-78
2022/03/22 15:36:47;;;;;;;17.70;10.15;;;;;26.60;102325.00;;;;10501859;28;20296;-78
2022/03/22 15:41:49;;;;;;;17.80;10.75;;;;;26.40;102315.00;;;;10487127;28;20239;-78
2022/03/22 15:46:51;;;;;;;16.13;10.27;;;;;25.30;102322.00;;;;10520888;28;20543;-78
2022/03/22 15:51:54;;;;;;;15.25;11.02;;;;;24.70;102316.00;;;;10449586;28;20214;-78
2022/03/22 15:56:57;;;;;;;18.08;11.60;;;;;23.30;102316.00;;;;10490090;28;20201;-77
2022/03/22 16:01:59;;;;;;;14.70;11.15;;;;;22.70;102320.00;;;;10481902;28;20316;-77
2022/03/22 16:07:01;;;;;;;21.20;13.27;;;;;22.20;102311.00;;;;10466684;28;20194;-78
2022/03/22 16:12:04;;;;;;;22.25;12.50;;;;;21.40;102314.00;;;;10473505;28;20741;-78
2022/03/22 16:17:06;;;;;;;23.63;11.85;;;;;20.90;102311.00;;;;10489340;28;20193;-78
2022/03/22 16:22:09;;;;;;;18.88;11.45;;;;;20.60;102305.00;;;;10471502;28;20247;-79
2022/03/22 16:27:11;;;;;;;17.38;11.38;;;;;20.40;102312.00;;;;10504490;28;20284;-78
2022/03/22 16:37:50;;;;;;;18.25;12.05;;;;;20.10;102310.00;;;;10526097;28;20258;-78
2022/03/22 16:42:52;;;;;;;24.60;11.95;;;;;20.00;102309.00;;;;10530491;28;20192;-77
2022/03/22 16:47:55;;;;;;;18.45;12.02;;;;;19.90;102306.00;;;;10499054;28;20661;-79
2022/03/22 16:52:57;;;;;;;19.75;11.90;;;;;19.70;102317.00;;;;10497602;28;20266;-78
2022/03/22 16:57:59;;;;;;;22.88;12.35;;;;;19.60;102315.00;;;;10513659;28;20246;-78
2022/03/22 17:03:01;;;;;;;23.42;12.95;;;;;19.50;102319.00;;;;10497108;28;20492;-78
2022/03/22 17:08:03;;;;;;;22.50;13.15;;;;;19.30;102321.00;;;;10496194;28;20941;-78
2022/03/22 17:13:06;;;;;;;20.98;13.90;;;;;19.00;102319.00;;;;10496098;28;20217;-78
2022/03/22 17:18:08;;;;;;;21.58;13.30;;;;;18.60;102323.00;;;;10512506;28;20681;-78
2022/03/22 17:23:10;;;;;;;27.33;12.57;;;;;18.10;102330.00;;;;10479841;28;20185;-78
2022/03/22 17:28:16;;;;;;;20.65;9.80;;;;;17.70;102328.00;;;;10488496;28;20254;-78
2022/03/22 17:33:19;;;;;;;21.65;9.32;;;;;17.50;102331.00;;;;10522492;28;20198;-78
2022/03/22 17:38:21;;;;;;;13.45;7.78;;;;;17.20;102332.00;;;;10536304;28;20225;-78
2022/03/22 17:43:23;;;;;;;14.82;6.72;;;;;16.90;102340.00;;;;10495071;28;20189;-77
2022/03/22 17:48:25;;;;;;;18.05;7.40;;;;;16.70;102345.00;;;;10511130;28;20185;-78
2022/03/22 17:53:28;;;;;;;16.35;7.90;;;;;16.40;102349.00;;;;10484865;28;20215;-78
2022/03/22 17:58:30;;;;;;;20.17;8.17;;;;;16.10;102350.00;;;;10535913;28;20196;-78
2022/03/22 18:03:32;;;;;;;14.40;8.70;;;;;15.90;102350.00;;;;10507913;28;20196;-78
2022/03/22 18:08:34;;;;;;;16.27;9.37;;;;;15.60;102351.00;;;;10484997;28;20202;-78
2022/03/22 18:13:41;;;;;;;19.47;9.77;;;;;15.50;102362.00;;;;10505268;28;20201;-81
2022/03/22 18:19:43;;;;;;;19.90;10.37;;;;;15.20;102363.00;;;;10392041;28;20206;-78
2022/03/22 18:26:01;;;;;;;23.80;14.93;;;;;15.10;102360.00;;;;10412977;28;20207;-79
2022/03/22 18:31:34;;;;;;;20.47;17.80;;;;;14.90;102368.00;;;;10366822;28;20226;-80
2022/03/22 18:36:45;;;;;;;19.60;11.97;;;;;14.80;102375.00;;;;10377703;28;20238;-79
2022/03/22 18:42:00;;;;;;;15.70;11.17;;;;;14.70;102382.00;;;;10363992;28;20309;-79
2022/03/22 18:47:17;;;;;;;18.93;11.10;;;;;14.40;102387.00;;;;10380815;28;20216;-79
2022/03/22 18:52:31;;;;;;;20.27;12.00;;;;;14.20;102395.00;;;;10467653;28;20209;-80
2022/03/22 19:05:50;;;;;;;17.00;12.60;;;;;13.90;102409.00;;;;10464558;28;20201;-79
2022/03/22 19:12:31;;;;;;;15.90;11.67;;;;;14.00;102403.00;;;;10320342;28;20583;-80
2022/03/22 19:18:22;;;;;;;19.23;11.93;;;;;14.10;102409.00;;;;10352638;28;20681;-80
2022/03/22 19:24:04;;;;;;;16.00;11.27;;;;;14.00;102413.00;;;;10347016;28;20296;-79
2022/03/22 19:30:03;;;;;;;16.23;11.50;;;;;13.70;102402.00;;;;10312625;28;20219;-81
2022/03/22 19:35:07;;;;;;;19.00;11.00;;;;;13.30;102393.00;;;;10352207;28;20218;-80
2022/03/22 19:40:09;;;;;;;19.03;11.73;;;;;13.00;102408.00;;;;10334453;28;20258;-81
2022/03/22 19:45:11;;;;;;;22.93;13.87;;;;;12.70;102408.00;;;;10471280;28;20283;-80
2022/03/22 19:50:13;;;;;;;20.30;13.17;;;;;12.30;102410.00;;;;10498554;28;20205;-80
2022/03/22 19:55:15;;;;;;;21.33;13.73;;;;;12.00;102407.00;;;;10484258;28;20216;-79
2022/03/22 20:00:17;;;;;;;22.10;14.27;;;;;11.80;102409.00;;;;10506563;28;20275;-79
2022/03/22 20:05:20;;;;;;;21.10;15.03;;;;;11.40;102405.00;;;;10469646;28;20193;-79
2022/03/22 20:10:23;;;;;;;23.17;14.93;;;;;11.10;102406.00;;;;10484528;28;20267;-79
2022/03/22 20:15:30;;;;;;;27.07;15.40;;;;;10.80;102410.00;;;;10462585;28;20292;-79
2022/03/22 20:20:38;;;;;;;24.60;16.20;;;;;10.50;102409.00;;;;10497046;28;20263;-79
2022/03/22 20:25:40;;;;;;;22.23;15.07;;;;;10.30;102408.00;;;;10463325;28;20208;-79
2022/03/22 20:30:43;;;;;;;24.47;15.03;;;;;10.10;102407.00;;;;10487806;28;20185;-79
2022/03/22 20:35:45;;;;;;;29.57;15.30;;;;;9.90;102408.00;;;;10470659;28;20271;-79
2022/03/22 20:40:46;;;;;;;25.43;16.20;;;;;9.70;102405.00;;;;10517031;28;20192;-79
2022/03/22 20:45:48;;;;;;;25.77;15.53;;;;;9.50;102408.00;;;;10473063;28;20197;-79
2022/03/22 20:50:51;;;;;;;28.20;15.80;;;;;9.30;102403.00;;;;10477026;28;20216;-79
2022/03/22 21:01:14;;;;;;;22.67;15.43;;;;;9.10;102400.00;;;;10491413;28;20193;-79
2022/03/22 21:06:16;;;;;;;24.40;15.67;;;;;8.90;102401.00;;;;10518175;28;20201;-79
2022/03/22 21:11:18;;;;;;;26.37;14.93;;;;;8.80;102398.00;;;;10489021;28;20185;-78
2022/03/22 21:16:23;;;;;;;22.83;14.60;;;;;8.60;102399.00;;;;10478321;28;20205;-79
2022/03/22 21:21:25;;;;;;;24.77;15.17;;;;;8.50;102407.00;;;;10474477;28;20197;-79
2022/03/22 21:26:27;;;;;;;27.20;17.10;;;;;8.40;102408.00;;;;10500380;28;20196;-79
2022/03/22 21:31:29;;;;;;;26.67;17.07;;;;;8.40;102401.00;;;;10482279;28;20185;-79
2022/03/22 21:36:34;;;;;;;23.03;15.10;;;;;8.20;102401.00;;;;10473868;28;20223;-79
2022/03/22 21:41:36;;;;;;;31.47;16.40;;;;;8.10;102401.00;;;;10472686;28;20390;-79
2022/03/22 21:46:38;;;;;;;24.57;14.97;;;;;8.00;102396.00;;;;10478757;28;20280;-79
2022/03/22 21:51:40;;;;;;;27.97;14.73;;;;;7.80;102402.00;;;;10486359;28;20283;-79
2022/03/22 21:56:42;;;;;;;23.97;15.53;;;;;7.70;102408.00;;;;10501856;28;20217;-79
2022/03/22 22:01:44;;;;;;;28.97;17.03;;;;;7.60;102409.00;;;;10476656;28;20185;-79
2022/03/22 22:06:46;;;;;;;24.77;16.27;;;;;7.50;102397.00;;;;10509201;28;20185;-79
2022/03/22 22:11:49;;;;;;;32.93;16.10;;;;;7.30;102404.00;;;;10525134;28;20188;-79
2022/03/22 22:16:52;;;;;;;26.70;16.40;;;;;7.20;102397.00;;;;10466672;28;20258;-78
2022/03/22 22:21:55;;;;;;;22.00;14.70;;;;;7.00;102407.00;;;;10509217;28;20193;-79
2022/03/22 22:26:57;;;;;;;27.67;16.53;;;;;6.90;102397.00;;;;10526057;28;20231;-79
2022/03/22 22:37:24;;;;;;;23.50;16.00;;;;;6.60;102401.00;;;;10490308;28;20254;-79
2022/03/22 22:42:26;;;;;;;28.23;17.73;;;;;6.50;102403.00;;;;10476268;28;20282;-78
2022/03/22 22:47:27;;;;;;;26.33;17.13;;;;;6.50;102402.00;;;;10499250;28;20254;-79
2022/03/22 22:52:30;;;;;;;37.40;21.27;;;;;6.40;102409.00;;;;10491999;28;20556;-79
2022/03/22 22:57:36;;;;;;;38.43;20.93;;;;;6.40;102406.00;;;;10486164;28;20556;-79
2022/03/22 23:02:38;;;;;;;30.87;19.90;;;;;6.40;102409.00;;;;10508676;28;20204;-79
2022/03/22 23:13:01;;;;;;;34.27;20.23;;;;;6.30;102415.00;;;;10508004;28;20254;-79
2022/03/22 23:18:04;;;;;;;38.30;21.23;;;;;6.20;102407.00;;;;10474596;28;20511;-78
2022/03/22 23:23:06;;;;;;;37.03;20.13;;;;;6.10;102411.00;;;;10491305;28;20193;-78
2022/03/22 23:28:10;;;;;;;31.40;19.47;;;;;6.00;102412.00;;;;10474071;28;20223;-79
2022/03/22 23:33:12;;;;;;;35.50;20.43;;;;;5.90;102398.00;;;;10489999;28;20205;-78
2022/03/22 23:38:15;;;;;;;33.23;21.10;;;;;5.80;102400.00;;;;10489843;28;20243;-79
2022/03/22 23:43:19;;;;;;;33.07;20.87;;;;;5.70;102396.00;;;;10490421;28;20254;-79
2022/03/22 23:48:22;;;;;;;37.83;20.80;;;;;5.70;102390.00;;;;10474167;28;20197;-79
2022/03/22 23:53:25;;;;;;;33.30;20.07;;;;;5.70;102392.00;;;;10473431;28;20204;-78
2022/03/22 23:58:26;;;;;;;33.63;19.17;;;;;5.60;102389.00;;;;10489607;28;20550;-79
